Carolina, PR (00979)

11:51 AM AST on July 28, 2016 (GMT -0400)
Seguridad Virtual Carolina | | Change Station

Elev 50 ft 18.38 °N, 65.96 °W | Updated 10 minutes ago

Scattered Clouds
Scattered Clouds
91.2 °F
Feels Like 103 °F
N
3.0
Wind Variable Wind from NE
Gusts 11.0 mph

Today
High -- | Low -- °F
--% Chance of Precip.
Yesterday
High -- | Low -- °F
Precip. -- in
Pressure 30.03 in
Visibility 9.0 miles
Clouds Few 4400 ft
Scattered Clouds 12000 ft
Heat Index 103 °F
Dew Point 76 °F
Humidity 61%
Rainfall Not available.
Snow Depth Not available.
6:00 AM 7:00 PM
Waning Crescent, 31% visible
METAR TJSJ 281456Z 05010KT 9SM FEW044 SCT120 31/24 A3003 RMK AO2 SLP167 HZ ALQDS T03110244 53001
Pressure 30.03 in
Visibility 9.0 miles
Clouds Few 4400 ft
Scattered Clouds 12000 ft
Heat Index 103 °F
Dew Point 76 °F
Humidity 61%
Rainfall Not available.
Snow Depth Not available.
6:00 AM 7:00 PM
Waning Crescent, 31% visible
METAR TJSJ 281456Z 05010KT 9SM FEW044 SCT120 31/24 A3003 RMK AO2 SLP167 HZ ALQDS T03110244 53001

10-Day Weather Forecast

Almanac

Astronomy

Jul. 28, 2016 Rise Set
Actual Time
Civil Twilight
Nautical Twilight
Astronomical Twilight
Moon
Length of Visible Light
Length of Day
Tomorrow will be .
, % of the Moon is Illuminated

Today's Extremes

State Highs State Lows

Community

WunderPhotos

Upload Photos

1,928,140 photos uploaded!

WunderBlog® & News

Nearby

Air Quality

  Air Quality AQ Index Pollutant
Not available.

Snow Depth

Station Depth Elevation

Earthquake Activity

City Distance Mag. Time & Date
Minimum magnitude displayed is 2.5.

Coastal Water Temperatures

Place Temperature

Stations

Nearby Weather Stations

Station Location Temp. Windchill Dew Point Humidity Wind Precip. Elev Updated Type
                   

Watches & Warnings

There are currently no watches in effect.